Time;durP1;ratioP1;P1;durP2;ratioP2;P2;SDS_P1;SDS_P2;PMS_P1;PMS_P2;Temp;Humidity;BMP_temperature;BMP_pressure;BME280_temperature;BME280_humidity;BME280_pressure;Samples;Min_cycle;Max_cycle;Signal;HPM_P1;HPM_P2
2021/07/29 00:01:00;;;;;;;8.75;5.07;;;26.60;96.70;;;;;;4901209;29;20092;-72
2021/07/29 00:03:30;;;;;;;9.00;5.38;;;26.60;96.70;;;;;;4904010;29;20039;-71
2021/07/29 00:05:58;;;;;;;7.97;5.22;;;26.50;96.70;;;;;;4887640;29;20051;-71
2021/07/29 00:08:27;;;;;;;8.13;5.30;;;26.50;96.70;;;;;;4906011;29;20044;-70
2021/07/29 00:10:55;;;;;;;6.60;5.55;;;26.50;96.70;;;;;;4904198;29;20545;-71
2021/07/29 00:13:23;;;;;;;6.00;4.72;;;26.40;96.70;;;;;;4900210;29;20044;-71
2021/07/29 00:15:51;;;;;;;11.98;4.75;;;26.40;96.70;;;;;;4903735;29;20052;-71
2021/07/29 00:21:07;;;;;;;9.75;5.20;;;26.30;96.70;;;;;;4923315;28;20059;-71
2021/07/29 00:23:36;;;;;;;7.63;5.05;;;26.30;96.70;;;;;;4906849;29;20048;-70
2021/07/29 00:26:04;;;;;;;8.48;4.75;;;26.30;96.70;;;;;;4925680;28;20054;-71
2021/07/29 00:28:32;;;;;;;13.27;5.07;;;26.40;96.70;;;;;;4907016;29;20532;-71
2021/07/29 00:31:01;;;;;;;9.63;5.50;;;26.30;96.70;;;;;;4906987;29;20140;-71
2021/07/29 00:33:29;;;;;;;9.50;5.03;;;26.30;96.70;;;;;;4904514;28;20083;-71
2021/07/29 00:35:57;;;;;;;8.82;4.43;;;26.30;96.70;;;;;;4906758;29;20375;-71
2021/07/29 00:38:27;;;;;;;8.07;5.25;;;26.30;96.70;;;;;;4900989;29;20604;-70
2021/07/29 00:40:55;;;;;;;8.23;4.78;;;26.30;96.70;;;;;;4901850;29;20532;-71
2021/07/29 00:43:24;;;;;;;9.20;5.32;;;26.30;96.70;;;;;;4901028;29;20525;-71
2021/07/29 00:45:53;;;;;;;7.22;4.70;;;26.20;96.70;;;;;;4908664;29;20043;-71
2021/07/29 00:48:24;;;;;;;11.13;5.10;;;26.20;96.70;;;;;;4903138;29;20156;-70
2021/07/29 00:50:53;;;;;;;7.07;4.82;;;26.20;96.70;;;;;;4921795;29;20498;-71
2021/07/29 00:53:21;;;;;;;8.48;5.25;;;26.10;96.70;;;;;;4902794;29;20608;-70
2021/07/29 00:55:51;;;;;;;7.22;4.53;;;26.20;96.70;;;;;;4922110;29;20377;-71
2021/07/29 00:58:20;;;;;;;9.32;5.32;;;26.20;96.70;;;;;;4902251;29;20040;-70
2021/07/29 01:00:48;;;;;;;8.73;5.28;;;26.10;96.70;;;;;;4904820;29;20099;-71
2021/07/29 01:03:16;;;;;;;7.55;4.82;;;26.00;96.70;;;;;;4906602;29;20462;-71
2021/07/29 01:05:44;;;;;;;11.77;5.63;;;26.00;96.70;;;;;;4907026;29;20386;-71
2021/07/29 01:08:13;;;;;;;9.70;5.03;;;26.00;96.70;;;;;;4900747;29;20131;-71
2021/07/29 01:10:41;;;;;;;10.38;5.32;;;26.00;96.70;;;;;;4905930;29;20123;-70
2021/07/29 01:13:11;;;;;;;8.85;5.20;;;26.00;96.70;;;;;;4905681;29;20047;-70
2021/07/29 01:15:39;;;;;;;11.82;5.95;;;26.00;96.70;;;;;;4904957;29;20048;-70
2021/07/29 01:18:08;;;;;;;9.93;5.30;;;25.90;96.70;;;;;;4910812;29;20036;-70
2021/07/29 01:20:37;;;;;;;9.52;5.90;;;25.90;96.70;;;;;;4906167;29;20044;-70
2021/07/29 01:23:05;;;;;;;7.35;4.60;;;25.90;96.70;;;;;;4921798;29;20435;-70
2021/07/29 01:25:34;;;;;;;11.05;5.43;;;25.90;96.70;;;;;;4902732;29;20056;-70
2021/07/29 01:28:02;;;;;;;11.10;5.05;;;25.80;96.70;;;;;;4907959;29;20040;-70
2021/07/29 01:30:30;;;;;;;10.45;5.55;;;25.90;96.70;;;;;;4902317;29;20048;-70
2021/07/29 01:33:03;;;;;;;9.30;5.15;;;25.90;96.70;;;;;;4905666;29;20518;-70
2021/07/29 01:35:32;;;;;;;8.50;5.53;;;25.90;96.70;;;;;;4902007;29;20052;-71
2021/07/29 01:38:01;;;;;;;10.85;5.30;;;25.80;96.70;;;;;;4904502;29;20040;-71
2021/07/29 01:40:29;;;;;;;7.88;5.20;;;25.70;96.70;;;;;;4903589;29;20496;-70
2021/07/29 01:42:58;;;;;;;10.20;5.32;;;25.60;96.70;;;;;;4916244;29;20558;-70
2021/07/29 01:45:26;;;;;;;9.50;4.78;;;25.60;96.70;;;;;;4900429;29;20048;-71
2021/07/29 01:47:54;;;;;;;6.75;5.45;;;25.60;96.70;;;;;;4902913;29;20045;-71
2021/07/29 01:50:22;;;;;;;7.60;4.53;;;25.70;96.70;;;;;;4901235;29;20517;-71
2021/07/29 01:52:51;;;;;;;8.68;5.47;;;25.80;96.70;;;;;;4907536;29;20498;-72
2021/07/29 01:55:20;;;;;;;6.82;5.15;;;25.70;96.70;;;;;;4904336;29;20067;-72
2021/07/29 01:57:49;;;;;;;9.52;5.70;;;25.60;96.70;;;;;;4906300;29;20447;-72
2021/07/29 02:00:17;;;;;;;7.38;5.20;;;25.60;96.70;;;;;;4900739;29;20515;-74
2021/07/29 02:02:48;;;;;;;7.28;4.90;;;25.60;96.70;;;;;;4903078;29;20044;-73
2021/07/29 02:05:17;;;;;;;7.32;5.07;;;25.60;96.70;;;;;;4903335;29;20455;-73
2021/07/29 02:07:45;;;;;;;8.93;5.30;;;25.60;96.70;;;;;;4905151;29;20083;-72
2021/07/29 02:10:13;;;;;;;12.23;5.95;;;25.60;96.70;;;;;;4901583;29;20139;-72
2021/07/29 02:12:43;;;;;;;9.73;5.45;;;25.60;96.70;;;;;;4905599;29;20616;-73
2021/07/29 02:15:12;;;;;;;8.30;6.28;;;25.50;96.70;;;;;;4898661;29;20055;-72
2021/07/29 02:17:44;;;;;;;9.63;5.53;;;25.40;96.70;;;;;;4916092;28;20062;-72
2021/07/29 02:20:13;;;;;;;9.35;6.07;;;25.40;96.70;;;;;;4920260;29;20086;-72
2021/07/29 02:22:42;;;;;;;7.82;6.22;;;25.40;96.70;;;;;;4919758;28;20049;-72
2021/07/29 02:25:12;;;;;;;10.25;6.15;;;25.30;96.70;;;;;;4918474;29;20147;-72
2021/07/29 02:27:42;;;;;;;8.45;6.28;;;25.30;96.70;;;;;;4906321;29;20040;-72
2021/07/29 02:30:12;;;;;;;9.55;5.47;;;25.30;96.70;;;;;;4902183;29;20100;-72
2021/07/29 02:32:41;;;;;;;10.35;5.90;;;25.30;96.70;;;;;;4906707;29;20036;-73
2021/07/29 02:35:11;;;;;;;10.27;5.80;;;25.30;96.70;;;;;;4898519;29;20134;-73
2021/07/29 02:37:40;;;;;;;11.70;5.70;;;25.30;96.70;;;;;;4903957;29;20044;-72
2021/07/29 02:40:09;;;;;;;7.97;5.63;;;25.30;96.70;;;;;;4904493;29;20044;-72
2021/07/29 02:42:45;;;;;;;11.82;6.00;;;25.30;96.70;;;;;;4915675;29;20464;-73
2021/07/29 02:45:15;;;;;;;11.05;6.57;;;25.40;96.70;;;;;;4920995;29;20044;-72
2021/07/29 02:47:43;;;;;;;10.05;5.57;;;25.20;96.70;;;;;;4905506;29;20075;-73
2021/07/29 02:50:13;;;;;;;7.93;5.80;;;25.20;96.70;;;;;;4923227;28;20040;-73
2021/07/29 02:52:42;;;;;;;9.80;5.85;;;25.10;96.70;;;;;;4906504;29;20054;-72
2021/07/29 02:55:11;;;;;;;8.23;5.78;;;25.10;96.70;;;;;;4907368;29;20048;-72
2021/07/29 02:57:40;;;;;;;7.07;5.15;;;25.00;96.70;;;;;;4904186;29;20443;-72
2021/07/29 03:00:12;;;;;;;9.77;6.20;;;25.00;96.70;;;;;;4908273;29;20131;-73
2021/07/29 03:02:41;;;;;;;8.15;5.90;;;25.10;96.70;;;;;;4904356;29;20044;-73
2021/07/29 03:05:10;;;;;;;6.88;5.95;;;25.00;96.70;;;;;;4908324;29;20592;-73
2021/07/29 03:07:38;;;;;;;11.23;6.35;;;25.00;96.70;;;;;;4909416;29;20493;-73
2021/07/29 03:10:07;;;;;;;9.55;5.95;;;24.90;96.70;;;;;;4909011;29;20032;-73
2021/07/29 03:12:36;;;;;;;8.73;5.70;;;24.90;96.70;;;;;;4903955;29;20107;-73
2021/07/29 03:15:05;;;;;;;6.63;5.65;;;24.90;96.70;;;;;;4922580;29;20048;-73
2021/07/29 03:17:34;;;;;;;7.78;5.80;;;24.90;96.70;;;;;;4904855;29;20463;-73
2021/07/29 03:20:03;;;;;;;10.05;5.78;;;24.80;96.70;;;;;;4906072;29;20056;-72
2021/07/29 03:22:32;;;;;;;9.50;5.90;;;24.70;96.70;;;;;;4909994;29;20048;-72
2021/07/29 03:25:00;;;;;;;9.65;6.20;;;24.70;96.70;;;;;;4910478;29;20048;-73
2021/07/29 03:27:28;;;;;;;8.32;5.72;;;24.70;96.70;;;;;;4922300;28;20439;-72
2021/07/29 03:29:57;;;;;;;8.77;6.00;;;24.70;96.70;;;;;;4908512;29;20436;-73
2021/07/29 03:32:25;;;;;;;8.82;5.82;;;24.60;96.70;;;;;;4922811;29;20677;-72
2021/07/29 03:34:55;;;;;;;9.95;5.90;;;24.60;96.70;;;;;;4921285;29;20045;-72
2021/07/29 03:41:12;;;;;;;8.88;5.07;;;24.60;96.70;;;;;;4903419;29;20052;-73
2021/07/29 03:44:10;;;;;;;7.53;5.82;;;24.70;96.70;;;;;;4913415;29;20052;-72
2021/07/29 03:46:39;;;;;;;8.30;5.47;;;24.70;96.70;;;;;;4907945;29;20044;-73
2021/07/29 03:49:20;;;;;;;9.68;5.50;;;24.60;96.70;;;;;;4904019;29;20490;-72
2021/07/29 03:51:49;;;;;;;10.15;5.32;;;24.60;96.70;;;;;;4934574;28;20410;-73
2021/07/29 03:54:17;;;;;;;7.10;5.13;;;24.50;96.70;;;;;;4918193;29;20525;-72
2021/07/29 03:56:45;;;;;;;7.78;5.32;;;24.60;96.70;;;;;;4906951;29;20048;-72
2021/07/29 03:59:14;;;;;;;11.85;5.43;;;24.60;96.70;;;;;;4908796;29;20052;-72
2021/07/29 04:01:42;;;;;;;9.68;5.93;;;24.70;96.70;;;;;;4910306;29;20089;-72
2021/07/29 04:04:11;;;;;;;9.73;5.47;;;24.70;96.70;;;;;;4899691;29;20458;-72
2021/07/29 04:06:40;;;;;;;8.75;5.57;;;24.70;96.70;;;;;;4910494;29;20044;-73
2021/07/29 04:09:10;;;;;;;12.70;6.03;;;24.60;96.70;;;;;;4923596;28;20140;-73
2021/07/29 04:11:40;;;;;;;8.52;5.57;;;24.60;96.70;;;;;;4917832;29;20511;-72
2021/07/29 04:14:09;;;;;;;10.38;5.32;;;24.60;96.70;;;;;;4908434;29;20047;-73
2021/07/29 04:16:39;;;;;;;6.60;5.30;;;24.70;96.70;;;;;;4903135;29;20581;-72
2021/07/29 04:19:07;;;;;;;9.55;5.80;;;24.70;96.70;;;;;;4909799;29;20047;-72
2021/07/29 04:21:35;;;;;;;8.57;5.70;;;24.70;96.70;;;;;;4910196;29;20525;-72
2021/07/29 04:24:03;;;;;;;10.57;6.38;;;24.70;96.70;;;;;;4907948;29;20048;-72
2021/07/29 04:26:33;;;;;;;9.10;5.85;;;24.70;96.70;;;;;;4908625;29;20128;-72
2021/07/29 04:29:01;;;;;;;10.48;5.70;;;24.70;96.70;;;;;;4902308;29;20067;-73
2021/07/29 04:31:31;;;;;;;10.27;6.22;;;24.80;96.70;;;;;;4908202;29;20052;-73
2021/07/29 04:34:01;;;;;;;7.20;5.13;;;24.70;96.70;;;;;;4907277;29;20040;-73
2021/07/29 04:36:30;;;;;;;8.32;5.90;;;24.70;96.70;;;;;;4909144;29;20119;-73
2021/07/29 04:39:02;;;;;;;8.32;5.63;;;24.60;96.70;;;;;;4903628;29;20494;-72
2021/07/29 04:41:32;;;;;;;9.23;5.22;;;24.60;96.70;;;;;;4909958;29;20048;-72
2021/07/29 04:44:00;;;;;;;8.90;5.97;;;24.60;96.70;;;;;;4906838;29;20052;-72
2021/07/29 04:46:28;;;;;;;7.68;5.10;;;24.60;96.70;;;;;;4910098;29;20040;-72
2021/07/29 04:48:57;;;;;;;10.45;5.68;;;24.60;96.70;;;;;;4905032;29;20066;-72
2021/07/29 04:51:25;;;;;;;8.82;5.85;;;24.60;96.70;;;;;;4909756;29;20529;-72
2021/07/29 04:53:53;;;;;;;8.88;5.80;;;24.60;96.70;;;;;;4906280;29;20116;-72
2021/07/29 04:56:21;;;;;;;9.82;5.88;;;24.60;96.70;;;;;;4908964;29;20036;-72
2021/07/29 04:58:51;;;;;;;7.28;5.32;;;24.60;96.70;;;;;;4906976;29;21123;-72
2021/07/29 05:01:19;;;;;;;7.65;5.70;;;24.50;96.70;;;;;;4907720;29;20442;-72
2021/07/29 05:03:47;;;;;;;10.55;6.15;;;24.60;96.70;;;;;;4907805;29;20076;-73
2021/07/29 05:06:15;;;;;;;8.05;5.45;;;24.60;96.70;;;;;;4908930;29;20577;-72
2021/07/29 05:08:43;;;;;;;11.23;6.22;;;24.50;96.70;;;;;;4909336;29;20574;-72
2021/07/29 05:11:11;;;;;;;11.15;6.78;;;24.50;96.70;;;;;;4926320;29;20079;-72
2021/07/29 05:13:40;;;;;;;6.95;5.93;;;24.60;96.70;;;;;;4908320;29;20108;-72
2021/07/29 05:16:09;;;;;;;10.07;5.90;;;24.60;96.70;;;;;;4906509;29;20446;-72
2021/07/29 05:18:38;;;;;;;12.48;5.53;;;24.60;96.70;;;;;;4901332;29;20490;-73
2021/07/29 05:21:07;;;;;;;8.60;5.65;;;24.70;96.70;;;;;;4906230;29;20063;-72
2021/07/29 05:23:35;;;;;;;11.32;5.88;;;24.60;96.70;;;;;;4908293;29;20101;-72
2021/07/29 05:26:03;;;;;;;13.32;5.90;;;24.50;96.70;;;;;;4908860;29;20040;-72
2021/07/29 05:28:31;;;;;;;10.90;6.25;;;24.60;96.70;;;;;;4891767;29;20048;-72
2021/07/29 05:30:59;;;;;;;7.05;5.80;;;24.60;96.70;;;;;;4937944;28;20475;-72
2021/07/29 05:33:29;;;;;;;8.32;5.97;;;24.60;96.70;;;;;;4939166;28;20415;-72
2021/07/29 05:35:59;;;;;;;9.88;5.43;;;24.70;96.70;;;;;;4930381;29;20144;-72
2021/07/29 05:38:28;;;;;;;9.43;5.78;;;24.80;96.70;;;;;;4909097;29;20486;-72
2021/07/29 05:40:58;;;;;;;9.15;5.93;;;24.80;96.70;;;;;;4905404;29;20133;-72
2021/07/29 05:43:26;;;;;;;7.10;5.85;;;24.70;96.70;;;;;;4891626;29;20163;-72
2021/07/29 05:45:54;;;;;;;9.05;6.28;;;24.70;96.70;;;;;;4920052;28;20056;-73
2021/07/29 05:48:22;;;;;;;9.35;5.57;;;24.60;96.70;;;;;;4924203;28;20480;-72
2021/07/29 05:50:56;;;;;;;10.35;5.35;;;24.70;96.70;;;;;;4903527;29;20539;-72
2021/07/29 05:53:24;;;;;;;10.43;6.18;;;24.80;96.70;;;;;;4904657;29;20036;-72
2021/07/29 05:55:53;;;;;;;9.68;5.93;;;24.90;96.70;;;;;;4918384;28;20709;-73
2021/07/29 05:58:22;;;;;;;10.65;6.40;;;24.80;96.70;;;;;;4940893;28;20576;-72
2021/07/29 06:00:50;;;;;;;9.77;6.15;;;24.70;96.70;;;;;;4908526;29;20044;-72
2021/07/29 06:03:18;;;;;;;9.82;5.90;;;24.80;96.70;;;;;;4922458;28;20052;-72
2021/07/29 06:05:46;;;;;;;8.55;5.88;;;24.90;96.70;;;;;;4904681;29;20048;-72
2021/07/29 06:08:16;;;;;;;10.25;6.03;;;25.00;96.70;;;;;;4902693;29;20317;-74
2021/07/29 06:10:44;;;;;;;10.30;7.40;;;25.00;96.70;;;;;;4902686;29;20466;-73
2021/07/29 06:13:12;;;;;;;13.25;7.70;;;25.00;96.70;;;;;;4909648;29;20447;-75
2021/07/29 06:15:41;;;;;;;12.65;7.55;;;25.00;96.70;;;;;;4906852;29;20055;-74
2021/07/29 06:18:11;;;;;;;12.95;7.40;;;25.20;96.70;;;;;;4905059;29;20076;-74
2021/07/29 06:20:41;;;;;;;14.15;8.18;;;25.20;96.70;;;;;;4906474;29;20048;-74
2021/07/29 06:23:09;;;;;;;12.48;6.43;;;25.20;96.70;;;;;;4889706;29;20048;-75
2021/07/29 06:25:41;;;;;;;11.20;6.25;;;25.40;96.70;;;;;;4908383;29;20044;-74
2021/07/29 06:28:13;;;;;;;9.80;6.30;;;25.50;96.70;;;;;;4890929;29;20418;-74
2021/07/29 06:30:42;;;;;;;8.93;6.43;;;25.60;96.70;;;;;;4907322;29;20048;-74
2021/07/29 06:33:10;;;;;;;12.15;6.63;;;25.50;96.70;;;;;;4896403;29;20707;-74
2021/07/29 06:35:38;;;;;;;12.05;6.20;;;25.50;96.70;;;;;;4889858;29;20052;-74
2021/07/29 06:38:06;;;;;;;9.82;5.72;;;25.50;96.70;;;;;;4906396;29;20501;-73
2021/07/29 06:40:35;;;;;;;11.10;6.70;;;25.60;96.70;;;;;;4908660;29;20067;-73
2021/07/29 06:43:05;;;;;;;8.00;6.43;;;25.70;96.70;;;;;;4905808;29;20051;-72
2021/07/29 06:45:33;;;;;;;8.05;5.80;;;25.80;96.70;;;;;;4906884;29;20427;-72
2021/07/29 06:48:01;;;;;;;7.60;5.57;;;25.90;96.70;;;;;;4903711;29;20056;-73
2021/07/29 06:50:29;;;;;;;9.93;6.70;;;25.90;96.70;;;;;;4917868;29;20396;-73
2021/07/29 06:52:57;;;;;;;8.10;5.70;;;25.90;96.70;;;;;;4901370;29;20051;-73
2021/07/29 06:55:29;;;;;;;10.30;6.00;;;26.00;96.70;;;;;;4906096;29;20403;-72
2021/07/29 06:57:57;;;;;;;11.07;6.40;;;26.00;96.70;;;;;;4903712;29;20061;-72
2021/07/29 07:00:26;;;;;;;9.77;6.40;;;26.10;96.70;;;;;;4909667;29;20040;-73
2021/07/29 07:02:54;;;;;;;12.07;6.15;;;26.20;96.70;;;;;;4903960;29;20419;-72
2021/07/29 07:05:23;;;;;;;11.32;6.70;;;26.20;96.70;;;;;;4909363;29;20066;-72
2021/07/29 07:07:51;;;;;;;8.70;6.13;;;26.20;96.70;;;;;;4904811;29;20123;-72
2021/07/29 07:10:19;;;;;;;11.32;6.35;;;26.20;96.70;;;;;;4911801;29;20530;-72
2021/07/29 07:12:47;;;;;;;11.45;6.40;;;26.20;96.70;;;;;;4890093;29;20056;-73
2021/07/29 07:15:15;;;;;;;7.95;5.60;;;26.40;96.70;;;;;;4923945;29;20047;-72
2021/07/29 07:17:45;;;;;;;11.73;6.50;;;26.40;96.70;;;;;;4911148;29;20078;-72
2021/07/29 07:20:13;;;;;;;11.70;6.80;;;26.50;96.70;;;;;;4909825;29;20044;-74
2021/07/29 07:22:41;;;;;;;8.80;6.18;;;26.50;96.70;;;;;;4910313;29;20484;-74
2021/07/29 07:25:09;;;;;;;10.60;6.20;;;26.50;96.70;;;;;;4940105;28;20044;-74
2021/07/29 07:27:37;;;;;;;13.48;7.20;;;26.60;96.70;;;;;;4906874;29;20845;-75
2021/07/29 07:30:06;;;;;;;10.07;6.28;;;26.60;96.70;;;;;;4890732;29;20057;-73
2021/07/29 07:32:35;;;;;;;10.90;6.57;;;26.50;96.70;;;;;;4938572;28;20040;-73
2021/07/29 07:35:05;;;;;;;9.93;6.65;;;26.70;96.70;;;;;;4910014;29;20463;-73
2021/07/29 07:37:34;;;;;;;9.10;6.10;;;26.70;96.70;;;;;;4921407;29;20056;-72
2021/07/29 07:40:02;;;;;;;10.43;6.80;;;26.80;96.70;;;;;;4923104;28;20044;-72
2021/07/29 07:42:30;;;;;;;9.77;6.25;;;26.80;96.70;;;;;;4907868;29;20154;-72
2021/07/29 07:44:59;;;;;;;10.93;6.10;;;26.80;96.70;;;;;;4909706;29;20044;-73
2021/07/29 07:47:29;;;;;;;9.98;6.00;;;26.80;96.70;;;;;;4909001;29;20071;-72
2021/07/29 07:49:57;;;;;;;8.00;5.43;;;26.90;96.70;;;;;;4915913;29;20068;-73
2021/07/29 07:52:26;;;;;;;8.52;5.43;;;27.10;96.70;;;;;;4910334;29;20071;-72
2021/07/29 07:54:55;;;;;;;6.55;5.85;;;27.20;96.70;;;;;;4923599;28;20075;-73
2021/07/29 07:57:23;;;;;;;6.95;5.13;;;27.30;96.70;;;;;;4919094;28;20048;-72
2021/07/29 07:59:55;;;;;;;7.72;5.45;;;27.30;96.70;;;;;;4938545;28;20460;-72
2021/07/29 08:02:24;;;;;;;11.50;5.97;;;27.40;96.70;;;;;;4910818;29;20529;-72
2021/07/29 08:04:52;;;;;;;8.85;5.53;;;27.50;96.70;;;;;;4923199;28;20084;-72
2021/07/29 08:07:20;;;;;;;8.13;5.43;;;27.60;96.70;;;;;;4891837;29;20143;-72
2021/07/29 08:09:50;;;;;;;8.82;5.97;;;27.70;96.70;;;;;;4906452;29;20083;-73
2021/07/29 08:12:18;;;;;;;7.25;5.57;;;27.80;96.70;;;;;;4893166;29;20044;-73
2021/07/29 08:14:46;;;;;;;7.85;5.07;;;27.80;96.70;;;;;;4938069;28;20044;-73
2021/07/29 08:17:14;;;;;;;6.03;5.28;;;27.90;96.70;;;;;;4918554;29;20150;-73
2021/07/29 08:19:42;;;;;;;7.55;5.70;;;28.00;96.70;;;;;;4906776;29;20036;-73
2021/07/29 08:22:10;;;;;;;12.25;5.80;;;28.00;96.70;;;;;;4910741;29;20083;-72
2021/07/29 08:24:38;;;;;;;7.03;4.90;;;28.00;96.70;;;;;;4910585;29;20048;-73
2021/07/29 08:27:08;;;;;;;4.85;4.40;;;27.90;96.70;;;;;;4910663;29;20570;-73
2021/07/29 08:29:36;;;;;;;5.63;4.68;;;28.00;96.70;;;;;;4908132;29;20048;-72
2021/07/29 08:32:06;;;;;;;6.65;5.57;;;28.10;96.70;;;;;;4924551;28;20044;-73
2021/07/29 08:34:34;;;;;;;9.27;5.03;;;28.30;96.70;;;;;;4910930;29;20139;-72
2021/07/29 08:37:02;;;;;;;9.43;5.60;;;28.30;96.70;;;;;;4910612;29;20495;-73
2021/07/29 08:39:30;;;;;;;9.15;5.63;;;28.40;96.70;;;;;;4907282;29;20044;-73
2021/07/29 08:41:59;;;;;;;8.02;5.05;;;28.40;96.70;;;;;;4909831;29;20047;-72
2021/07/29 08:44:29;;;;;;;6.80;5.70;;;28.50;96.70;;;;;;4906677;29;20067;-72
2021/07/29 08:46:57;;;;;;;6.25;5.65;;;28.50;96.70;;;;;;4923470;29;20372;-72
2021/07/29 08:49:28;;;;;;;8.10;5.90;;;28.40;96.70;;;;;;4905731;29;20048;-73
2021/07/29 08:51:57;;;;;;;9.50;5.00;;;28.40;96.70;;;;;;4929558;29;20115;-72
2021/07/29 08:54:25;;;;;;;9.02;5.30;;;28.40;96.70;;;;;;4909264;29;20618;-72
2021/07/29 08:56:53;;;;;;;13.02;5.68;;;28.40;96.70;;;;;;4908968;29;20582;-72
2021/07/29 08:59:21;;;;;;;7.65;5.32;;;28.50;96.70;;;;;;4892057;29;20143;-72
2021/07/29 09:01:55;;;;;;;7.68;5.20;;;28.50;96.70;;;;;;4922024;28;20156;-73
2021/07/29 09:04:23;;;;;;;7.20;5.32;;;28.60;96.70;;;;;;4908331;29;20048;-73
2021/07/29 09:06:59;;;;;;;7.47;5.40;;;28.70;96.70;;;;;;4889227;29;20040;-74
2021/07/29 09:09:46;;;;;;;9.30;5.32;;;28.80;96.70;;;;;;4906724;29;20120;-73
2021/07/29 09:12:17;;;;;;;;;;;28.90;96.70;;;;;;4921594;29;20498;-73
2021/07/29 09:14:46;;;;;;;7.13;5.20;;;28.90;96.70;;;;;;4908115;29;20377;-73
2021/07/29 09:17:17;;;;;;;6.90;4.68;;;29.00;96.70;;;;;;4904065;29;20092;-73
2021/07/29 09:19:47;;;;;;;6.70;4.88;;;29.10;96.70;;;;;;4908529;29;20107;-73
2021/07/29 09:22:16;;;;;;;7.93;5.32;;;29.20;96.70;;;;;;4909248;29;20070;-73
2021/07/29 09:25:01;;;;;;;8.40;5.78;;;29.30;96.70;;;;;;4908737;29;20040;-73
2021/07/29 09:27:45;;;;;;;9.27;5.38;;;29.30;96.70;;;;;;4905984;29;20071;-73
2021/07/29 09:30:17;;;;;;;8.82;5.75;;;29.30;96.70;;;;;;4916880;29;20134;-73
2021/07/29 09:33:02;;;;;;;7.28;5.15;;;29.40;96.70;;;;;;4917844;29;20467;-72
2021/07/29 09:35:35;;;;;;;10.38;5.82;;;29.40;96.60;;;;;;4921769;29;20319;-72
2021/07/29 09:38:05;;;;;;;8.43;5.80;;;29.40;96.10;;;;;;4908175;29;20062;-72
2021/07/29 09:40:45;;;;;;;7.25;5.47;;;29.40;96.50;;;;;;4907784;29;20071;-72
2021/07/29 09:43:15;;;;;;;5.93;4.88;;;29.50;96.20;;;;;;4907337;29;20044;-72
2021/07/29 09:45:44;;;;;;;11.65;5.32;;;29.60;95.50;;;;;;4930012;29;20157;-72
2021/07/29 09:48:14;;;;;;;7.80;5.50;;;29.50;95.80;;;;;;4889245;29;20236;-72
2021/07/29 09:50:42;;;;;;;6.90;5.20;;;29.60;95.70;;;;;;4906307;29;20048;-73
2021/07/29 09:53:11;;;;;;;8.77;5.53;;;29.80;96.00;;;;;;4908502;29;20148;-73
2021/07/29 09:55:39;;;;;;;9.38;6.35;;;29.70;94.60;;;;;;4908525;29;20044;-72
2021/07/29 09:58:08;;;;;;;8.10;5.30;;;29.70;95.00;;;;;;4920954;29;20174;-72
2021/07/29 10:00:37;;;;;;;9.48;5.70;;;29.80;94.90;;;;;;4905249;29;20160;-72
2021/07/29 10:03:08;;;;;;;8.93;5.55;;;30.00;94.90;;;;;;4906794;29;20238;-73
2021/07/29 10:05:51;;;;;;;11.02;6.10;;;30.00;95.00;;;;;;4907051;29;20092;-73
2021/07/29 10:08:28;;;;;;;7.18;5.30;;;30.00;94.70;;;;;;4907026;29;20040;-73
2021/07/29 10:10:57;;;;;;;6.35;5.15;;;30.20;94.70;;;;;;4903980;29;20103;-72
2021/07/29 10:13:35;;;;;;;6.07;4.95;;;30.30;93.70;;;;;;4918868;29;20087;-72
2021/07/29 10:16:05;;;;;;;10.70;5.43;;;30.30;92.50;;;;;;4904987;29;20048;-73
2021/07/29 10:19:05;;;;;;;8.60;4.50;;;30.30;92.40;;;;;;4906548;29;20578;-73
2021/07/29 10:21:36;;;;;;;8.25;4.93;;;30.30;91.40;;;;;;4935315;28;20079;-73
2021/07/29 10:24:05;;;;;;;5.07;4.53;;;30.50;91.80;;;;;;4907033;29;20048;-73
2021/07/29 10:26:35;;;;;;;7.82;4.70;;;30.60;91.80;;;;;;4922081;29;20048;-73
2021/07/29 10:29:24;;;;;;;7.07;5.13;;;30.80;91.30;;;;;;4906003;29;20139;-73
2021/07/29 10:31:54;;;;;;;7.75;4.88;;;30.90;91.30;;;;;;4909647;29;20433;-73
2021/07/29 10:34:28;;;;;;;6.70;4.40;;;31.10;91.30;;;;;;4898677;29;20044;-72
2021/07/29 10:36:59;;;;;;;6.07;4.80;;;31.30;90.00;;;;;;4890934;29;20154;-72
2021/07/29 10:39:27;;;;;;;5.57;4.63;;;31.30;88.90;;;;;;4903984;29;20055;-72
2021/07/29 10:41:57;;;;;;;7.32;4.38;;;31.40;88.70;;;;;;4908221;29;20048;-72
2021/07/29 10:44:47;;;;;;;4.85;4.18;;;31.50;88.50;;;;;;4935261;28;20059;-72
2021/07/29 10:47:37;;;;;;;8.10;4.72;;;31.50;89.30;;;;;;4919799;29;20163;-72
2021/07/29 10:50:14;;;;;;;6.28;4.28;;;31.80;89.10;;;;;;4902597;29;20123;-73
2021/07/29 10:52:51;;;;;;;6.70;4.88;;;31.70;88.10;;;;;;4906577;29;20141;-73
2021/07/29 10:55:22;;;;;;;4.97;3.72;;;31.70;88.70;;;;;;4907596;29;20550;-74
2021/07/29 10:58:06;;;;;;;10.00;4.22;;;31.80;87.60;;;;;;4902314;29;20054;-74
2021/07/29 11:00:35;;;;;;;6.78;4.10;;;31.90;86.70;;;;;;4907453;29;20466;-74
2021/07/29 11:03:09;;;;;;;7.63;4.25;;;32.00;86.20;;;;;;4905648;29;20042;-74
2021/07/29 11:05:43;;;;;;;8.30;4.60;;;32.10;86.90;;;;;;4887480;29;20052;-74
2021/07/29 11:08:13;;;;;;;8.50;4.22;;;32.40;86.20;;;;;;4902658;29;20060;-74
2021/07/29 11:10:42;;;;;;;6.80;4.10;;;32.40;85.30;;;;;;4919747;29;20071;-74
2021/07/29 11:13:13;;;;;;;9.25;4.88;;;32.40;86.20;;;;;;4899780;29;20075;-74
2021/07/29 11:15:42;;;;;;;6.60;4.22;;;32.50;86.50;;;;;;4919078;29;20048;-74
2021/07/29 11:18:13;;;;;;;5.72;3.78;;;32.60;86.50;;;;;;4905099;29;20131;-74
2021/07/29 11:20:41;;;;;;;7.85;3.65;;;32.60;86.00;;;;;;4905923;29;20052;-74
2021/07/29 11:23:14;;;;;;;6.03;4.20;;;32.60;85.80;;;;;;4901705;29;20075;-74
2021/07/29 11:26:00;;;;;;;5.55;3.88;;;32.70;86.30;;;;;;4937758;28;20497;-74
2021/07/29 11:28:28;;;;;;;5.88;4.07;;;32.80;85.60;;;;;;4903586;29;20058;-74
2021/07/29 11:31:17;;;;;;;7.80;4.18;;;32.80;86.00;;;;;;4904794;29;20498;-74
2021/07/29 11:33:50;;;;;;;5.78;4.00;;;32.90;86.10;;;;;;4906936;29;20471;-74
2021/07/29 11:36:18;;;;;;;6.32;4.20;;;33.00;85.50;;;;;;4903951;29;20569;-74
2021/07/29 11:38:58;;;;;;;7.32;3.90;;;33.10;84.90;;;;;;4907143;29;20047;-74
2021/07/29 11:41:28;;;;;;;5.93;3.90;;;33.20;84.20;;;;;;4917431;29;20467;-74
2021/07/29 11:43:59;;;;;;;5.53;4.10;;;33.10;84.30;;;;;;4910941;29;20044;-74
2021/07/29 11:46:28;;;;;;;6.22;3.83;;;33.30;84.30;;;;;;4921986;29;20067;-74
2021/07/29 11:49:03;;;;;;;6.68;3.80;;;33.30;83.90;;;;;;4910527;29;20578;-74
2021/07/29 11:51:32;;;;;;;;;;;33.40;84.10;;;;;;4907761;29;20044;-74
2021/07/29 11:54:00;;;;;;;5.05;4.07;;;33.60;83.50;;;;;;4911489;29;20408;-74
2021/07/29 11:56:30;;;;;;;7.55;3.80;;;33.60;83.10;;;;;;4904266;29;20535;-74
2021/07/29 11:58:59;;;;;;;5.55;4.00;;;33.60;84.30;;;;;;4910205;29;20123;-74
2021/07/29 12:01:28;;;;;;;4.97;4.25;;;33.60;83.30;;;;;;4908624;29;20043;-74
2021/07/29 12:03:57;;;;;;;6.85;3.92;;;33.70;82.70;;;;;;4907040;29;20052;-74
2021/07/29 12:06:26;;;;;;;6.60;4.80;;;33.80;83.20;;;;;;4920285;29;20051;-74
2021/07/29 12:08:55;;;;;;;7.38;4.20;;;33.80;83.80;;;;;;4909988;29;20317;-74
2021/07/29 12:11:28;;;;;;;7.93;4.68;;;33.90;83.50;;;;;;4904055;29;20067;-74
2021/07/29 12:13:58;;;;;;;5.35;4.22;;;34.00;83.90;;;;;;4913167;29;20044;-74
2021/07/29 12:16:44;;;;;;;6.57;4.50;;;34.30;84.00;;;;;;4908527;29;20123;-74
2021/07/29 12:19:13;;;;;;;6.22;4.43;;;34.30;83.10;;;;;;4918642;29;20087;-74
2021/07/29 12:21:42;;;;;;;6.63;4.53;;;34.40;82.90;;;;;;4910345;29;20052;-74
2021/07/29 12:24:10;;;;;;;7.00;4.97;;;34.50;83.30;;;;;;4904578;29;20040;-74
2021/07/29 12:26:39;;;;;;;5.35;4.25;;;34.30;82.70;;;;;;4908845;29;20495;-74
2021/07/29 12:29:09;;;;;;;5.15;4.65;;;34.20;82.20;;;;;;4887290;29;20052;-74
2021/07/29 12:31:44;;;;;;;6.13;4.85;;;34.20;82.80;;;;;;4909951;29;20151;-74
2021/07/29 12:34:13;;;;;;;8.98;4.95;;;34.10;83.40;;;;;;4904549;29;20040;-74
2021/07/29 12:36:42;;;;;;;9.00;4.75;;;34.10;84.10;;;;;;4908337;29;20467;-74
2021/07/29 12:39:12;;;;;;;5.70;4.90;;;34.10;82.30;;;;;;4907131;29;20131;-74
2021/07/29 12:41:41;;;;;;;8.02;4.15;;;34.20;82.30;;;;;;4909541;29;20048;-74
2021/07/29 12:44:13;;;;;;;5.93;3.88;;;34.20;80.50;;;;;;4906129;29;20043;-74
2021/07/29 12:46:42;;;;;;;5.55;4.45;;;34.20;80.30;;;;;;4919769;29;20494;-74
2021/07/29 12:49:12;;;;;;;5.97;4.22;;;34.10;80.30;;;;;;4906675;29;20039;-74
2021/07/29 12:51:42;;;;;;;8.18;4.05;;;34.20;81.50;;;;;;4905031;29;20052;-74
2021/07/29 12:54:11;;;;;;;9.70;4.70;;;34.40;80.30;;;;;;4887724;29;20063;-74
2021/07/29 12:56:40;;;;;;;5.57;4.95;;;34.40;82.90;;;;;;4916495;29;20043;-74
2021/07/29 12:59:11;;;;;;;8.35;4.95;;;34.50;83.90;;;;;;4893100;29;20075;-74
2021/07/29 13:01:39;;;;;;;8.05;6.20;;;34.40;84.30;;;;;;4906922;29;20413;-74
2021/07/29 13:04:08;;;;;;;9.48;6.07;;;34.30;86.60;;;;;;4920157;28;20040;-74
2021/07/29 13:06:36;;;;;;;7.38;5.47;;;34.30;87.20;;;;;;4909471;29;20059;-74